METAR Data
IDs: Format: Raw Decoded Include TAF

Data at: 2014 UTC 18 Apr 2021

KOBE 181955Z AUTO 15007KT SCT050 SCT090 30/21 A2986 RMK AO2
KOBE 181935Z AUTO 15008KT BKN050 BKN070 BKN080 29/21 A2987 RMK AO2
KOBE 181915Z AUTO 15008KT SCT050 SCT070 BKN080 29/20 A2988 RMK AO2
KOBE 181855Z AUTO 17007KT SCT050 SCT070 BKN080 30/21 A2989 RMK AO2
KOBE 181835Z AUTO 17006KT SCT048 SCT055 SCT065 29/20 A2990 RMK AO2
KOBE 181815Z AUTO 15007G14KT SCT050 SCT065 30/21 A2990 RMK AO2
KOBE 181755Z AUTO 16009KT SCT044 SCT050 SCT075 30/21 A2990 RMK AO2
KOBE 181735Z AUTO 15006KT SCT038 BKN046 BKN060 28/21 A2991 RMK AO2
KOBE 181715Z AUTO 17007KT BKN035 BKN046 BKN065 28/21 A2992 RMK AO2
KOBE 181655Z AUTO 20009KT 155V215 BKN035 BKN045 29/21 A2993 RMK AO2
KOBE 181635Z AUTO 22005KT BKN034 BKN041 BKN046 28/21 A2994 RMK AO2
KOBE 181615Z AUTO 19007KT SCT031 BKN039 BKN046 28/20 A2995 RMK AO2
KOBE 181555Z AUTO 17009KT SCT029 SCT039 28/21 A2995 RMK AO2
KOBE 181535Z AUTO 18009G15KT SCT027 28/20 A2995 RMK AO2
KOBE 181515Z AUTO 21008KT SCT028 27/20 A2995 RMK AO2
KOBE 181455Z AUTO 21009G14KT CLR 26/20 A2995 RMK AO2
KOBE 181435Z AUTO 21009KT SCT015 25/21 A2995 RMK AO2
KOBE 181415Z AUTO 20008KT SCT011 25/21 A2995 RMK AO2
KOBE 181355Z AUTO 21003KT BKN009 BKN050 24/21 A2995 RMK AO2
KOBE 181335Z AUTO 00000KT BKN009 OVC055 23/21 A2996 RMK AO2
KOBE 181315Z AUTO 19005KT BKN004 BKN008 22/22 A2996 RMK AO2
KOBE 181255Z AUTO 00000KT OVC002 22/22 A2996 RMK AO2
KOBE 181235Z AUTO 00000KT OVC002 21/21 A2996 RMK AO2
KOBE 181215Z AUTO 00000KT OVC002 21/20 A2995 RMK AO2
KOBE 181155Z AUTO 00000KT OVC002 20/20 A2995 RMK AO2
KOBE 181135Z AUTO 00000KT OVC002 19/18 A2994 RMK AO2
KOBE 181115Z AUTO 00000KT BKN002 18/17 A2993 RMK AO2
KOBE 181055Z AUTO 00000KT OVC002 18/18 A2993 RMK AO2
KOBE 181035Z AUTO 00000KT OVC002 18/18 A2992 RMK AO2
KOBE 181015Z AUTO 00000KT OVC002 18/18 A2992 RMK AO2
KOBE 180955Z AUTO 00000KT OVC002 18/17 A2991 RMK AO2
KOBE 180935Z AUTO 00000KT BKN002 18/18 A2992 RMK AO2
KOBE 180915Z AUTO 00000KT 19/18 A2992 RMK AO2
KOBE 180855Z AUTO 00000KT 18/18 A2992 RMK AO2
KOBE 180835Z AUTO 00000KT 18/18 A2992 RMK AO2
KOBE 180815Z AUTO 00000KT 18/18 A2992 RMK AO2
KOBE 180755Z AUTO 00000KT 18/17 A2992 RMK AO2
KOBE 180735Z AUTO 00000KT 18/18 A2992 RMK AO2
KOBE 180715Z AUTO 00000KT 18/18 A2992 RMK AO2
KOBE 180655Z AUTO 00000KT 19/18 A2991 RMK AO2
KOBE 180635Z AUTO 00000KT 19/18 A2992 RMK AO2
KOBE 180615Z AUTO 00000KT 19/18 A2992 RMK AO2
KOBE 180555Z AUTO 00000KT 20/18 A2992 RMK AO2
KOBE 180535Z AUTO 00000KT 20/18 A2993 RMK AO2
KOBE 180515Z AUTO 00000KT 20/18 A2993 RMK AO2
KOBE 180455Z AUTO 00000KT 20/18 A2993 RMK AO2
KOBE 180435Z AUTO 00000KT 20/18 A2993 RMK AO2
KOBE 180415Z AUTO 00000KT 21/18 A2992 RMK AO2
KOBE 180355Z AUTO 00000KT 21/18 A2991 RMK AO2
KOBE 180335Z AUTO 00000KT 21/18 A2991 RMK AO2
KOBE 180315Z AUTO 00000KT CLR 22/18 A2990 RMK AO2
KOBE 180255Z AUTO 26004KT CLR 22/18 A2990 RMK AO2
KOBE 180235Z AUTO 26007KT CLR 22/18 A2990 RMK AO2
KOBE 180215Z AUTO 26007KT CLR 23/18 A2989 RMK AO2
KOBE 180155Z AUTO 26008KT CLR 23/18 A2988 RMK AO2
KOBE 180135Z AUTO 26007KT CLR 23/18 A2988 RMK AO2
KOBE 180115Z AUTO 25008KT CLR 24/18 A2988 RMK AO2
KOBE 180055Z AUTO 00000KT CLR 24/17 A2987 RMK AO2
KOBE 180035Z AUTO 00000KT CLR 25/17 A2986 RMK AO2
KOBE 180015Z AUTO 27005KT CLR 26/17 A2985 RMK AO2
KOBE 172355Z AUTO 00000KT CLR 27/17 A2985 RMK AO2
KOBE 172335Z AUTO 26008KT CLR 27/17 A2984 RMK AO2
KOBE 172315Z AUTO 26009KT CLR 28/17 A2984 RMK AO2
KOBE 172255Z AUTO 26010KT SCT050 30/17 A2984 RMK AO2
KOBE 172235Z AUTO 25011G14KT SCT050 30/18 A2983 RMK AO2
KOBE 172215Z AUTO 25014G17KT SCT050 30/18 A2983 RMK AO2
KOBE 172155Z AUTO 25010KT SCT055 31/18 A2982 RMK AO2
KOBE 172135Z AUTO 24008KT SCT055 SCT065 30/17 A2982 RMK AO2
KOBE 172115Z AUTO 24009KT SCT055 SCT065 30/17 A2982 RMK AO2
KOBE 172055Z AUTO 25009G14KT SCT055 SCT065 31/17 A2982 RMK AO2
KOBE 172035Z AUTO 25011G18KT SCT050 SCT065 31/17 A2982 RMK AO2
KOBE 172015Z AUTO 24008KT BKN050 BKN065 31/18 A2983 RMK AO2
KOBE 171955Z AUTO 21005G09KT SCT050 BKN065 30/18 A2983 RMK AO2
KOBE 171935Z AUTO 24008KT SCT050 BKN065 31/18 A2984 RMK AO2
KOBE 171915Z AUTO 23008G14KT SCT050 BKN065 30/18 A2985 RMK AO2
KOBE 171855Z AUTO 00000KT BKN050 BKN065 30/18 A2986 RMK AO2
KOBE 171835Z AUTO 22011G15KT BKN049 OVC060 30/18 A2987 RMK AO2 LTG DSNT NW
KOBE 171815Z AUTO 00000KT SCT049 BKN060 BKN065 30/18 A2988 RMK AO2
KOBE 171755Z AUTO 25009G14KT SCT044 SCT050 BKN070 30/19 A2989 RMK AO2
KOBE 171735Z AUTO 27010G14KT SCT042 BKN050 BKN070 29/18 A2989 RMK AO2
KOBE 171715Z AUTO 28008KT BKN040 BKN048 BKN060 29/19 A2990 RMK AO2
KOBE 171655Z AUTO 26008G17KT BKN038 OVC048 29/18 A2990 RMK AO2
KOBE 171635Z AUTO 23010G16KT BKN038 BKN048 BKN060 30/20 A2990 RMK AO2
KOBE 171615Z AUTO 22010KT SCT038 29/20 A2991 RMK AO2
KOBE 171555Z AUTO 25010KT SCT032 SCT039 27/19 A2991 RMK AO2
KOBE 171535Z AUTO 23007KT SCT031 SCT038 28/20 A2991 RMK AO2
KOBE 171515Z AUTO 24010KT SCT029 SCT035 28/20 A2991 RMK AO2
KOBE 171455Z AUTO 23011KT SCT025 SCT033 27/20 A2992 RMK AO2
KOBE 171435Z AUTO 25009G16KT SCT021 SCT027 27/20 A2993 RMK AO2
KOBE 171415Z AUTO 24010G15KT SCT021 26/21 A2993 RMK AO2
KOBE 171355Z AUTO 00000KT CLR 25/21 A2993 RMK AO2
KOBE 171335Z AUTO 00000KT 23/22 A2992 RMK AO2
KOBE 171315Z AUTO 00000KT 23/21 A2991 RMK AO2
KOBE 171255Z AUTO 00000KT 22/21 A2991 RMK AO2
KOBE 171235Z AUTO 00000KT 22/21 A2990 RMK AO2
KOBE 171215Z AUTO 00000KT 21/21 A2989 RMK AO2
KOBE 171155Z AUTO 00000KT 21/20 A2989 RMK AO2
KOBE 171135Z AUTO 00000KT 20/19 A2988 RMK AO2
KOBE 171115Z AUTO 00000KT 20/19 A2988 RMK AO2
KOBE 171055Z AUTO 00000KT 20/19 A2987 RMK AO2
KOBE 171035Z AUTO 00000KT 19/18 A2988 RMK AO2
KOBE 171015Z AUTO 00000KT 19/18 A2987 RMK AO2
KOBE 170955Z AUTO 00000KT 19/18 A2987 RMK AO2
KOBE 170935Z AUTO 00000KT 19/18 A2986 RMK AO2 LTG DSNT W
KOBE 170915Z AUTO 00000KT 20/18 A2985 RMK AO2
KOBE 170855Z AUTO 00000KT 19/18 A2985 RMK AO2
KOBE 170835Z AUTO 22004KT 18/18 A2985 RMK AO2
KOBE 170815Z AUTO 00000KT 18/17 A2985 RMK AO2